TimeEST,TemperatureF,Dew PointF,Humidity,Sea Level PressureIn,VisibilityMPH,Wind Direction,Wind SpeedMPH,Gust SpeedMPH,PrecipitationIn,Events,Conditions,WindDirDegrees,DateUTC
12:56 AM,30.9,28.9,92,30.16,6.0,Calm,Calm,-,N/A,,Clear,0,2012-11-21 05:56:00
1:56 AM,32.0,30.0,92,30.16,6.0,Calm,Calm,-,N/A,,Clear,0,2012-11-21 06:56:00
2:56 AM,30.9,28.9,92,30.19,5.0,Calm,Calm,-,N/A,,Clear,0,2012-11-21 07:56:00
3:56 AM,30.9,30.0,96,30.18,4.0,Calm,Calm,-,N/A,,Scattered Clouds,0,2012-11-21 08:56:00
4:56 AM,30.0,28.9,96,30.20,4.0,Calm,Calm,-,N/A,,Partly Cloudy,0,2012-11-21 09:56:00
5:56 AM,28.9,28.0,96,30.22,4.0,Calm,Calm,-,N/A,,Clear,0,2012-11-21 10:56:00
6:56 AM,28.9,27.0,92,30.24,4.0,Calm,Calm,-,N/A,,Clear,0,2012-11-21 11:56:00
7:56 AM,28.9,27.0,92,30.25,4.0,Calm,Calm,-,N/A,,Clear,0,2012-11-21 12:56:00
8:56 AM,37.0,35.1,93,30.27,3.0,Calm,Calm,-,N/A,,Clear,0,2012-11-21 13:56:00
9:56 AM,46.9,39.9,77,30.26,5.0,Calm,Calm,-,N/A,,Haze,0,2012-11-21 14:56:00
10:56 AM,51.1,36.0,56,30.26,8.0,Calm,Calm,-,N/A,,Clear,0,2012-11-21 15:56:00
11:56 AM,54.0,35.1,49,30.25,8.0,Calm,Calm,-,N/A,,Clear,0,2012-11-21 16:56:00
12:56 PM,55.9,34.0,44,30.23,10.0,Calm,Calm,-,N/A,,Clear,0,2012-11-21 17:56:00
1:56 PM,57.9,32.0,37,30.22,10.0,Calm,Calm,-,N/A,,Clear,0,2012-11-21 18:56:00
3:56 PM,57.9,34.0,41,30.22,10.0,Calm,Calm,-,N/A,,Clear,0,2012-11-21 20:56:00
4:56 PM,51.1,34.0,52,30.23,10.0,Calm,Calm,-,N/A,,Clear,0,2012-11-21 21:56:00
5:56 PM,41.0,35.1,79,30.24,9.0,Calm,Calm,-,N/A,,Clear,0,2012-11-21 22:56:00
6:56 PM,39.0,33.1,79,30.24,10.0,Calm,Calm,-,N/A,,Clear,0,2012-11-21 23:56:00
7:56 PM,37.0,32.0,82,30.25,9.0,Calm,Calm,-,N/A,,Clear,0,2012-11-22 00:56:00
8:56 PM,34.0,30.9,89,30.25,8.0,Calm,Calm,-,N/A,,Clear,0,2012-11-22 01:56:00
9:56 PM,34.0,30.0,85,30.24,8.0,Calm,Calm,-,N/A,,Clear,0,2012-11-22 02:56:00
10:56 PM,33.1,30.9,92,30.24,6.0,Calm,Calm,-,N/A,,Clear,0,2012-11-22 03:56:00
11:56 PM,32.0,30.0,92,30.24,6.0,Calm,Calm,-,N/A,,Clear,0,2012-11-22 04:56:00